Orbital elements of COSMOS 1823 DEB
| Launched | 19 February 1987 |
| Flight ended | – |
| Launch site | Plesetsk Missile and Space Complex, Russia |
| Owner | Commonwealth of Independent States (former USSR) |
| NORAD ID | 18751 |
| Date fetched |
Epoch osculation |
Inc. [°] |
Ecc. | RA asc node [hr] |
Arg Peri. [°] |
Mean anom [°] |
Mean motion [rev/day] |
Abs. mag |
| Date fetched |
Epoch osculation |
Inc. [°] |
Ecc. | RA asc node [hr] |
Arg Peri. [°] |
Mean anom [°] |
Mean motion [rev/day] |
Abs. mag |
| 2026 May 08 17:57 | 2026 May 05 07:49:03 | 73.6296 | 0.00776 | 5.0305 | 217.8019 | 297.7392 | 12.33027 | – |
| 2026 May 07 17:58 | 2026 May 05 07:49:03 | 73.6296 | 0.00776 | 5.0305 | 217.8019 | 297.7392 | 12.33027 | – |
| 2026 May 06 17:57 | 2026 May 05 07:49:03 | 73.6296 | 0.00776 | 5.0305 | 217.8019 | 297.7392 | 12.33027 | – |
| 2026 May 05 17:57 | 2026 May 05 07:49:03 | 73.6296 | 0.00776 | 5.0305 | 217.8019 | 297.7392 | 12.33027 | – |
| 2026 May 04 17:57 | 2026 Apr 30 07:05:24 | 73.6287 | 0.00778 | 5.4727 | 224.9699 | 297.7392 | 12.33027 | – |
| 2026 May 03 17:57 | 2026 Apr 30 07:05:24 | 73.6287 | 0.00778 | 5.4727 | 224.9699 | 297.7392 | 12.33027 | – |
| 2026 May 02 17:57 | 2026 Apr 30 07:05:24 | 73.6287 | 0.00778 | 5.4727 | 224.9699 | 297.7392 | 12.33027 | – |
| 2026 May 01 17:56 | 2026 Apr 30 07:05:24 | 73.6287 | 0.00778 | 5.4727 | 224.9699 | 297.7392 | 12.33027 | – |
| 2026 Apr 30 17:56 | 2026 Apr 30 07:05:24 | 73.6287 | 0.00778 | 5.4727 | 224.9699 | 297.7392 | 12.33027 | – |
| 2026 Apr 29 17:57 | 2026 Apr 24 09:01:20 | 73.6277 | 0.00780 | 5.9932 | 233.3623 | 297.7392 | 12.33027 | – |
| 2026 Apr 28 17:56 | 2026 Apr 24 09:01:20 | 73.6277 | 0.00780 | 5.9932 | 233.3623 | 297.7392 | 12.33027 | – |
| 2026 Apr 27 17:58 | 2026 Apr 24 09:01:20 | 73.6277 | 0.00780 | 5.9932 | 233.3623 | 297.7392 | 12.33027 | – |
| 2026 Apr 26 17:58 | 2026 Apr 24 09:01:20 | 73.6277 | 0.00780 | 5.9932 | 233.3623 | 297.7392 | 12.33027 | – |
| 2026 Apr 25 17:58 | 2026 Apr 24 09:01:20 | 73.6277 | 0.00780 | 5.9932 | 233.3623 | 297.7392 | 12.33027 | – |
| 2026 Apr 24 17:59 | 2026 Apr 24 09:01:20 | 73.6277 | 0.00780 | 5.9932 | 233.3623 | 297.7392 | 12.33027 | – |
| 2026 Apr 23 17:57 | 2026 Apr 19 07:45:55 | 73.6270 | 0.00781 | 6.4374 | 240.4869 | 297.7392 | 12.33027 | – |
| 2026 Apr 22 17:57 | 2026 Apr 19 07:45:55 | 73.6270 | 0.00781 | 6.4374 | 240.4869 | 297.7392 | 12.33027 | – |
| 2026 Apr 21 17:57 | 2026 Apr 19 07:45:55 | 73.6270 | 0.00781 | 6.4374 | 240.4869 | 297.7392 | 12.33027 | – |
| 2026 Apr 20 17:57 | 2026 Apr 19 07:45:55 | 73.6270 | 0.00781 | 6.4374 | 240.4869 | 297.7392 | 12.33027 | – |
| 2026 Apr 19 17:58 | 2026 Apr 19 07:45:55 | 73.6270 | 0.00781 | 6.4374 | 240.4869 | 297.7392 | 12.33027 | – |
| 2026 Apr 18 17:56 | 2026 Apr 13 07:23:34 | 73.6265 | 0.00782 | 6.9663 | 248.9203 | 297.7392 | 12.33027 | – |
| 2026 Apr 16 17:57 | 2026 Apr 13 07:23:34 | 73.6265 | 0.00782 | 6.9663 | 248.9203 | 297.7392 | 12.33027 | – |
| 2026 Apr 14 17:57 | 2026 Apr 13 07:23:34 | 73.6265 | 0.00782 | 6.9663 | 248.9203 | 297.7392 | 12.33027 | – |
| 2026 Apr 13 17:57 | 2026 Apr 13 07:23:34 | 73.6265 | 0.00782 | 6.9663 | 248.9203 | 297.7392 | 12.33027 | – |
| 2026 Apr 12 17:57 | 2026 Apr 08 00:55:23 | 73.6265 | 0.00783 | 7.4297 | 256.2816 | 297.7392 | 12.33027 | – |
| 2026 Apr 11 17:57 | 2026 Apr 08 00:55:23 | 73.6265 | 0.00783 | 7.4297 | 256.2816 | 297.7392 | 12.33027 | – |